createdAt,value
2022-10-19T00:01:31.795Z,101603.88
2022-10-19T00:04:18.768Z,101603.88
2022-10-19T00:07:05.762Z,101597.50
2022-10-19T00:09:52.781Z,101599.13
2022-10-19T00:12:39.718Z,101600.75
2022-10-19T00:15:26.923Z,101598.00
2022-10-19T00:18:13.872Z,101591.25
2022-10-19T00:21:05.995Z,101585.38
2022-10-19T00:23:53.009Z,101585.38
2022-10-19T00:26:40.105Z,101594.50
2022-10-19T00:29:27.019Z,101588.94
2022-10-19T00:32:13.967Z,101588.94
2022-10-19T00:35:01.801Z,101593.38
2022-10-19T00:37:48.736Z,101591.41
2022-10-19T00:40:39.996Z,101584.22
2022-10-19T00:43:30.159Z,101586.97
2022-10-19T00:46:17.119Z,101583.38
2022-10-19T00:49:13.082Z,101579.00
2022-10-19T00:52:12.954Z,101579.00
2022-10-19T00:55:01.038Z,101571.81
2022-10-19T00:57:48.034Z,101569.03
2022-10-19T01:00:36.249Z,101561.88
2022-10-19T01:03:23.260Z,101558.59
2022-10-19T01:06:11.816Z,101557.00
2022-10-19T01:08:58.750Z,101566.47
2022-10-19T01:12:26.664Z,101563.22
2022-10-19T01:15:34.013Z,101568.50
2022-10-19T01:18:50.833Z,101562.81
2022-10-19T01:22:12.678Z,101553.88
2022-10-19T01:25:21.818Z,101545.38
2022-10-19T01:28:17.686Z,101547.22
2022-10-19T01:31:13.422Z,101550.31
2022-10-19T01:34:28.216Z,101552.63
2022-10-19T01:37:40.668Z,101565.22
2022-10-19T01:40:36.715Z,101563.63
2022-10-19T01:43:31.888Z,101561.16
2022-10-19T01:46:27.556Z,101562.81
2022-10-19T01:49:20.490Z,101551.19
2022-10-19T01:52:11.621Z,101546.81
2022-10-19T01:55:02.126Z,101533.75
2022-10-19T01:58:04.701Z,101526.22
2022-10-19T02:00:56.726Z,101515.44
2022-10-19T02:03:43.870Z,101512.69
2022-10-19T02:06:30.825Z,101501.09
2022-10-19T02:09:18.395Z,101501.09
2022-10-19T02:12:09.681Z,101493.91
2022-10-19T02:15:00.431Z,101491.97
2022-10-19T02:17:51.515Z,101480.38
2022-10-19T02:20:38.692Z,101467.63
2022-10-19T02:23:27.784Z,101470.41
2022-10-19T02:26:14.785Z,101464.88
2022-10-19T02:29:01.803Z,101463.25
2022-10-19T02:31:49.188Z,101463.25
2022-10-19T02:34:37.602Z,101435.50
2022-10-19T02:37:25.589Z,101439.41
2022-10-19T02:40:12.924Z,101431.91
2022-10-19T02:43:05.947Z,101430.25
2022-10-19T02:46:01.767Z,101421.94
2022-10-19T02:48:51.494Z,101427.50
2022-10-19T02:52:04.554Z,101419.16
2022-10-19T02:54:51.459Z,101404.47
2022-10-19T02:57:38.562Z,101428.31
2022-10-19T03:00:57.512Z,101404.97
2022-10-19T03:03:44.431Z,101411.66
2022-10-19T03:06:31.360Z,101408.88
2022-10-19T03:09:18.411Z,101414.91
2022-10-19T03:12:05.521Z,101405.75
2022-10-19T03:14:52.473Z,101401.81
2022-10-19T03:17:39.425Z,101381.13
2022-10-19T03:20:26.419Z,101391.88
2022-10-19T03:23:13.317Z,101385.53
2022-10-19T03:26:00.418Z,101395.91
2022-10-19T03:28:47.373Z,101395.59
2022-10-19T03:31:34.635Z,101392.81
2022-10-19T03:34:21.615Z,101384.50
2022-10-19T03:37:08.729Z,101365.88
2022-10-19T03:39:55.612Z,101354.78
2022-10-19T03:42:42.547Z,101358.69
2022-10-19T03:45:29.493Z,101363.41
2022-10-19T03:48:16.383Z,101375.34
2022-10-19T03:51:06.730Z,101365.88
2022-10-19T03:53:55.506Z,101374.53
2022-10-19T03:56:42.751Z,101371.75
2022-10-19T03:59:29.739Z,101356.25
2022-10-19T04:02:16.706Z,101366.56
2022-10-19T04:05:03.820Z,101355.00
2022-10-19T04:07:51.538Z,101360.88
2022-10-19T04:10:38.470Z,101360.88
2022-10-19T04:13:25.372Z,101356.81
2022-10-19T04:16:14.164Z,101345.56
2022-10-19T04:19:01.298Z,101349.84
2022-10-19T04:21:49.398Z,101331.09
2022-10-19T04:24:36.294Z,101321.38
2022-10-19T04:27:23.202Z,101328.28
2022-10-19T04:30:10.563Z,101335.66
2022-10-19T04:32:57.526Z,101335.84
2022-10-19T04:35:44.501Z,101331.00
2022-10-19T04:38:32.873Z,101320.59
2022-10-19T04:41:21.013Z,101293.97
2022-10-19T04:44:08.118Z,101301.38
2022-10-19T04:46:55.009Z,101290.28
2022-10-19T04:49:41.918Z,101300.56
2022-10-19T04:52:28.861Z,101310.84
2022-10-19T04:55:15.980Z,101309.69
2022-10-19T04:58:02.981Z,101301.38
2022-10-19T05:00:50.277Z,101294.66
2022-10-19T05:03:37.663Z,101283.09
2022-10-19T05:06:25.188Z,101275.91
2022-10-19T05:09:12.135Z,101274.31
2022-10-19T05:11:59.035Z,101250.47
2022-10-19T05:14:45.943Z,101264.69
2022-10-19T05:17:33.302Z,101266.66
2022-10-19T05:20:20.613Z,101259.47
2022-10-19T05:23:07.548Z,101263.06
2022-10-19T05:26:17.361Z,101265.03
2022-10-19T05:29:04.864Z,101255.91
2022-10-19T05:31:51.864Z,101263.06
2022-10-19T05:34:38.770Z,101268.63
2022-10-19T05:37:25.935Z,101275.81
2022-10-19T05:40:12.963Z,101276.13
2022-10-19T05:42:59.891Z,101261.94
2022-10-19T05:45:46.805Z,101245.59
2022-10-19T05:48:35.032Z,101246.44
2022-10-19T05:51:23.519Z,101256.25
2022-10-19T05:54:14.451Z,101243.19
2022-10-19T05:57:01.430Z,101245.97
2022-10-19T05:59:48.351Z,101240.06
2022-10-19T06:02:35.279Z,101241.69
2022-10-19T06:05:22.188Z,101258.69
2022-10-19T06:08:09.125Z,101260.66
2022-10-19T06:11:09.977Z,101265.66
2022-10-19T06:13:59.669Z,101261.28
2022-10-19T06:16:46.562Z,101245.47
2022-10-19T06:19:33.507Z,101247.44
2022-10-19T06:22:21.045Z,101247.91
2022-10-19T06:25:08.344Z,101242.38
2022-10-19T06:27:55.259Z,101245.97
2022-10-19T06:30:42.696Z,101217.88
2022-10-19T06:33:32.805Z,101242.84
2022-10-19T06:36:25.790Z,101247.25
2022-10-19T06:39:12.694Z,101255.22
2022-10-19T06:41:59.587Z,101251.28
2022-10-19T06:44:46.504Z,101250.94
2022-10-19T06:47:34.804Z,101248.66
2022-10-19T06:50:21.992Z,101242.75
2022-10-19T06:53:09.054Z,101241.28
2022-10-19T06:55:59.400Z,101240.13
2022-10-19T06:58:46.320Z,101227.84
2022-10-19T07:01:33.546Z,101236.66
2022-10-19T07:04:20.447Z,101220.50
2022-10-19T07:07:07.532Z,101226.50
2022-10-19T07:09:54.711Z,101229.72
2022-10-19T07:12:41.601Z,101227.44
2022-10-19T07:15:28.609Z,101219.13
2022-10-19T07:18:16.088Z,101234.59
2022-10-19T07:21:05.956Z,101228.25
2022-10-19T07:23:52.861Z,101215.53
2022-10-19T07:26:39.819Z,101236.91
2022-10-19T07:29:26.838Z,101229.41
2022-10-19T07:32:13.781Z,101221.91
2022-10-19T07:35:00.820Z,101219.91
2022-10-19T07:37:47.749Z,101208.50
2022-10-19T07:40:35.576Z,101201.75
2022-10-19T07:43:22.484Z,101197.03
2022-10-19T07:46:12.673Z,101213.69
2022-10-19T07:49:00.781Z,101206.19
2022-10-19T07:51:47.926Z,101202.25
2022-10-19T07:54:20.390Z,101202.25
2022-10-19T07:56:47.096Z,101199.13
2022-10-19T07:59:16.285Z,101211.03
2022-10-19T08:01:44.714Z,101209.91
2022-10-19T08:04:49.071Z,101216.59
2022-10-19T08:06:58.005Z,101220.19
2022-10-19T08:12:15.111Z,101214.28
2022-10-19T08:14:42.449Z,101220.66
2022-10-19T08:17:11.966Z,101221.47
2022-10-19T08:19:43.446Z,101227.00
2022-10-19T08:22:10.676Z,101232.19
2022-10-19T08:24:37.433Z,101223.06
2022-10-19T08:27:04.067Z,101224.69
2022-10-19T08:29:31.696Z,101227.13
2022-10-19T08:32:00.072Z,101227.94
2022-10-19T08:34:26.995Z,101211.28
2022-10-19T08:36:55.625Z,101197.75
2022-10-19T08:39:23.081Z,101200.19
2022-10-19T08:41:54.034Z,101192.31
2022-10-19T08:44:55.364Z,101197.84
2022-10-19T08:47:24.932Z,101197.06
2022-10-19T08:49:52.187Z,101195.44
2022-10-19T08:52:28.525Z,101212.09
2022-10-19T08:55:09.196Z,101214.19
2022-10-19T08:58:08.373Z,101211.41
2022-10-19T09:00:55.271Z,101188.06
2022-10-19T09:03:37.819Z,101205.84
2022-10-19T09:06:23.587Z,101198.69
2022-10-19T09:08:53.200Z,101184.34
2022-10-19T09:11:27.701Z,101208.03
2022-10-19T09:14:10.372Z,101203.19
2022-10-19T09:16:37.308Z,101213.69
2022-10-19T09:19:31.732Z,101219.59
2022-10-19T09:22:03.255Z,101216.22
2022-10-19T09:25:13.242Z,101209.84
2022-10-19T09:27:41.749Z,101204.16
2022-10-19T09:30:21.124Z,101205.66
2022-10-19T09:32:51.405Z,101207.66
2022-10-19T09:35:27.276Z,101208.78
2022-10-19T09:37:54.830Z,101207.97
2022-10-19T09:40:25.707Z,101201.59
2022-10-19T09:42:57.403Z,101200.47
2022-10-19T09:45:50.099Z,101200.81
2022-10-19T09:48:39.501Z,101199.19
2022-10-19T09:51:15.590Z,101194.47
2022-10-19T09:53:51.360Z,101189.72
2022-10-19T09:56:20.587Z,101182.19
2022-10-19T09:58:49.577Z,101176.31
2022-10-19T10:01:40.196Z,101172.38
2022-10-19T10:04:13.607Z,101167.63
2022-10-19T10:06:41.720Z,101174.00
2022-10-19T10:09:18.894Z,101178.41
2022-10-19T10:11:49.586Z,101182.78
2022-10-19T10:14:40.092Z,101181.19
2022-10-19T10:17:16.528Z,101175.63
2022-10-19T10:20:10.846Z,101179.56
2022-10-19T10:22:37.784Z,101169.13
2022-10-19T10:25:16.740Z,101161.16
2022-10-19T10:27:55.512Z,101149.25
2022-10-19T10:30:22.281Z,101142.56
2022-10-19T10:32:54.453Z,101130.97
2022-10-19T10:35:24.083Z,101126.13
2022-10-19T10:37:51.264Z,101110.66
2022-10-19T10:40:30.460Z,101111.78
2022-10-19T10:43:04.657Z,101099.88
2022-10-19T10:45:31.205Z,101104.66
2022-10-19T10:47:59.812Z,101101.50
2022-10-19T10:50:34.321Z,101089.59
2022-10-19T10:53:47.094Z,101084.88
2022-10-19T10:56:35.343Z,101074.59
2022-10-19T10:59:10.704Z,101062.69
2022-10-19T11:01:41.690Z,101063.50
2022-10-19T11:04:17.583Z,101072.28
2022-10-19T11:06:51.688Z,101093.66
2022-10-19T11:09:46.578Z,101096.09
2022-10-19T11:12:16.921Z,101085.47
2022-10-19T11:14:56.206Z,101087.09
2022-10-19T11:17:31.163Z,101093.09
2022-10-19T11:19:58.444Z,101089.16
2022-10-19T11:22:49.752Z,101077.38
2022-10-19T11:25:31.384Z,101063.94
2022-10-19T11:28:03.011Z,101061.16
2022-10-19T11:30:41.632Z,101052.53
2022-10-19T11:33:36.138Z,101035.50
2022-10-19T11:36:25.468Z,101026.03
2022-10-19T11:39:07.373Z,101022.81
2022-10-19T11:41:58.302Z,100997.38
2022-10-19T11:44:45.863Z,101000.38
2022-10-19T11:47:33.869Z,101006.63
2022-10-19T11:50:37.852Z,101005.00
2022-10-19T11:53:35.466Z,100992.19
2022-10-19T11:57:01.805Z,100981.34
2022-10-19T11:59:51.277Z,100994.22
2022-10-19T12:02:39.773Z,100987.41
2022-10-19T12:05:14.426Z,100989.03
2022-10-19T12:08:05.405Z,100976.31
2022-10-19T12:14:31.732Z,100953.91
2022-10-19T12:17:05.801Z,100956.19
2022-10-19T12:19:42.554Z,100955.75
2022-10-19T12:22:17.264Z,100965.22
2022-10-19T12:24:44.022Z,100958.06
2022-10-19T12:27:16.511Z,100950.56
2022-10-19T12:29:51.233Z,100960.38
2022-10-19T12:32:23.052Z,100965.09
2022-10-19T12:35:05.391Z,100958.75
2022-10-19T12:37:39.687Z,100912.75
2022-10-19T12:40:28.042Z,100914.63
2022-10-19T12:43:01.030Z,100928.03
2022-10-19T12:45:30.434Z,100961.16
2022-10-19T12:48:11.070Z,100959.66
2022-10-19T12:50:49.947Z,100948.56
2022-10-19T12:53:40.903Z,100926.41
2022-10-19T12:56:17.655Z,100923.63
2022-10-19T12:58:46.796Z,100908.63
2022-10-19T13:01:34.978Z,100898.34
2022-10-19T13:04:13.890Z,100893.59
2022-10-19T13:06:51.949Z,100895.56
2022-10-19T13:09:35.231Z,100897.53
2022-10-19T13:12:21.493Z,100899.13
2022-10-19T13:14:52.892Z,100879.28
2022-10-19T13:17:37.681Z,100881.59
2022-10-19T13:20:13.429Z,100850.66
2022-10-19T13:22:46.118Z,100859.66
2022-10-19T13:25:36.982Z,100839.44
2022-10-19T13:28:06.661Z,100837.81
2022-10-19T13:30:38.897Z,100820.41
2022-10-19T13:33:29.879Z,100823.16
2022-10-19T13:35:59.234Z,100838.97
2022-10-19T13:38:33.026Z,100832.25
2022-10-19T13:41:11.063Z,100825.94
2022-10-19T13:43:43.719Z,100823.16
2022-10-19T13:46:18.067Z,100830.31
2022-10-19T13:49:21.999Z,100837.47
2022-10-19T13:52:33.143Z,100837.47
2022-10-19T13:55:26.058Z,100818.88
2022-10-19T13:58:17.419Z,100817.25
2022-10-19T14:01:05.010Z,100812.53
2022-10-19T14:03:58.488Z,100801.78
2022-10-19T14:06:33.698Z,100794.28
2022-10-19T14:09:28.358Z,100746.72
2022-10-19T14:12:09.181Z,100756.16
2022-10-19T14:17:25.424Z,100747.75
2022-10-19T14:19:56.223Z,100734.69
2022-10-19T14:22:33.828Z,100735.16
2022-10-19T14:25:16.181Z,100728.00
2022-10-19T14:27:43.137Z,100743.94
2022-10-19T14:30:24.786Z,100731.69
2022-10-19T14:32:55.695Z,100744.38
2022-10-19T14:35:29.678Z,100751.56
2022-10-19T14:37:57.101Z,100762.63
2022-10-19T14:40:32.470Z,100734.47
2022-10-19T14:43:01.116Z,100709.97
2022-10-19T14:45:29.987Z,100713.44
2022-10-19T14:48:17.054Z,100744.88
2022-10-19T14:50:53.833Z,100705.50
2022-10-19T14:53:32.578Z,100664.31
2022-10-19T14:56:06.217Z,100667.88
2022-10-19T14:58:40.203Z,100654.81
2022-10-19T15:01:08.051Z,100660.84
2022-10-19T15:03:34.808Z,100641.91
2022-10-19T15:06:04.401Z,100638.31
2022-10-19T15:08:43.990Z,100647.44
2022-10-19T15:11:27.062Z,100645.81
2022-10-19T15:14:08.874Z,100649.41
2022-10-19T15:16:54.431Z,100633.13
2022-10-19T15:19:40.603Z,100641.09
2022-10-19T15:22:33.210Z,100645.81
2022-10-19T15:25:22.849Z,100641.53
2022-10-19T15:27:50.972Z,100653.88
2022-10-19T15:30:17.522Z,100642.91
2022-10-19T15:32:56.538Z,100639.75
2022-10-19T15:35:25.977Z,100635.03
2022-10-19T15:38:00.890Z,100637.00
2022-10-19T15:40:36.794Z,100630.31
2022-10-19T15:43:35.160Z,100624.75
2022-10-19T15:46:22.928Z,100615.31
2022-10-19T15:48:55.181Z,100624.06
2022-10-19T15:51:23.070Z,100624.88
2022-10-19T15:53:57.315Z,100612.28
2022-10-19T15:56:27.893Z,100605.56
2022-10-19T15:58:56.543Z,100594.94
2022-10-19T16:01:31.865Z,100591.44
2022-10-19T16:03:59.585Z,100595.81
2022-10-19T16:06:28.896Z,100596.28
2022-10-19T16:08:55.885Z,100587.97
2022-10-19T16:11:23.466Z,100573.75
2022-10-19T16:13:50.764Z,100549.59
2022-10-19T16:16:26.530Z,100533.44
2022-10-19T16:18:53.897Z,100529.47
2022-10-19T16:21:23.990Z,100518.38
2022-10-19T16:23:50.922Z,100515.28
2022-10-19T16:26:18.634Z,100513.31
2022-10-19T16:28:45.498Z,100501.03
2022-10-19T16:31:12.536Z,100509.03
2022-10-19T16:33:39.187Z,100501.13
2022-10-19T16:36:07.383Z,100504.72
2022-10-19T16:38:36.436Z,100494.06
2022-10-19T16:41:05.520Z,100496.47
2022-10-19T16:43:32.391Z,100483.09
2022-10-19T16:45:59.045Z,100481.91
2022-10-19T16:48:26.044Z,100466.06
2022-10-19T16:51:24.092Z,100471.25
2022-10-19T16:53:53.369Z,100457.38
2022-10-19T16:56:20.876Z,100458.63
2022-10-19T16:58:47.521Z,100455.84
2022-10-19T17:01:17.308Z,100444.75
2022-10-19T17:03:46.166Z,100439.72
2022-10-19T17:06:14.245Z,100437.75
2022-10-19T17:11:30.279Z,100446.84
2022-10-19T17:13:59.748Z,100441.31
2022-10-19T17:16:28.263Z,100461.19
2022-10-19T17:18:58.253Z,100462.78
2022-10-19T17:21:30.982Z,100468.31
2022-10-19T17:24:02.325Z,100460.00
2022-10-19T17:26:38.364Z,100464.41
2022-10-19T17:29:06.655Z,100437.81
2022-10-19T17:31:34.037Z,100430.31
2022-10-19T17:34:02.039Z,100424.38
2022-10-19T17:36:35.773Z,100438.25
2022-10-19T17:39:18.584Z,100424.84
2022-10-19T17:41:46.289Z,100414.91
2022-10-19T17:44:15.273Z,100415.63
2022-10-19T17:46:42.264Z,100416.81
2022-10-19T17:49:10.275Z,100413.56
2022-10-19T17:51:38.022Z,100414.75
2022-10-19T17:54:13.658Z,100421.47
2022-10-19T17:56:41.058Z,100403.16
2022-10-19T17:59:09.227Z,100394.06
2022-10-19T18:01:37.945Z,100380.22
2022-10-19T18:04:05.674Z,100394.53
2022-10-19T18:06:35.322Z,100388.19
2022-10-19T18:09:04.281Z,100397.31
2022-10-19T18:11:37.167Z,100387.84
2022-10-19T18:14:05.164Z,100379.16
2022-10-19T18:16:46.717Z,100368.44
2022-10-19T18:19:16.004Z,100362.88
2022-10-19T18:21:44.953Z,100359.72
2022-10-19T18:24:15.407Z,100350.25
2022-10-19T18:26:43.393Z,100351.03
2022-10-19T18:29:17.159Z,100357.41
2022-10-19T18:31:43.938Z,100340.75
2022-10-19T18:34:15.239Z,100342.38
2022-10-19T18:36:42.354Z,100341.19
2022-10-19T18:39:11.495Z,100332.88
2022-10-19T18:41:38.635Z,100331.72
2022-10-19T18:44:06.968Z,100344.84
2022-10-19T18:46:35.850Z,100339.31
2022-10-19T18:49:06.819Z,100337.78
2022-10-19T18:51:33.568Z,100334.63
2022-10-19T18:54:00.302Z,100321.56
2022-10-19T18:56:27.498Z,100310.13
2022-10-19T18:58:54.111Z,100295.06
2022-10-19T19:01:24.332Z,100285.59
2022-10-19T19:03:54.678Z,100280.06
2022-10-19T19:06:33.179Z,100286.84
2022-10-19T19:09:01.125Z,100285.69
2022-10-19T19:11:35.951Z,100292.38
2022-10-19T19:14:21.693Z,100282.44
2022-10-19T19:16:48.541Z,100295.97
2022-10-19T19:19:16.931Z,100267.03
2022-10-19T19:21:44.802Z,100267.84
2022-10-19T19:24:15.167Z,100253.63
2022-10-19T19:26:45.541Z,100252.44
2022-10-19T19:29:12.238Z,100250.09
2022-10-19T19:31:39.414Z,100237.03
2022-10-19T19:34:07.806Z,100240.63
2022-10-19T19:36:34.426Z,100236.69
2022-10-19T19:39:01.361Z,100250.97
2022-10-19T19:41:34.284Z,100242.28
2022-10-19T19:44:01.002Z,100214.53
2022-10-19T19:46:27.714Z,100220.91
2022-10-19T19:49:00.249Z,100205.06
2022-10-19T19:51:28.246Z,100214.19
2022-10-19T19:53:54.976Z,100232.41
2022-10-19T19:56:21.645Z,100240.75
2022-10-19T19:58:48.442Z,100220.16
2022-10-19T20:01:18.663Z,100226.13
2022-10-19T20:03:46.394Z,100218.25
2022-10-19T20:06:15.561Z,100202.78
2022-10-19T20:08:42.679Z,100204.38
2022-10-19T20:11:12.140Z,100200.44
2022-10-19T20:13:39.722Z,100205.63
2022-10-19T20:16:13.972Z,100221.09
2022-10-19T20:18:43.461Z,100207.66
2022-10-19T20:21:10.208Z,100207.66
2022-10-19T20:23:37.081Z,100209.25
2022-10-19T20:26:03.892Z,100188.69
2022-10-19T20:28:33.505Z,100189.91
2022-10-19T20:31:06.257Z,100170.47
2022-10-19T20:33:34.931Z,100190.34
2022-10-19T20:36:06.503Z,100191.16
2022-10-19T20:38:34.242Z,100191.56
2022-10-19T20:41:06.975Z,100206.25
2022-10-19T20:43:38.480Z,100225.28
2022-10-19T20:46:07.263Z,100248.31
2022-10-19T20:48:34.485Z,100266.94
2022-10-19T20:51:23.032Z,100284.81
2022-10-19T20:53:51.779Z,100276.91
2022-10-19T20:56:23.926Z,100264.59
2022-10-19T20:58:58.372Z,100238.69
2022-10-19T21:01:25.519Z,100254.31
2022-10-19T21:03:54.536Z,100249.81
2022-10-19T21:06:23.783Z,100260.41
2022-10-19T21:08:50.779Z,100272.25
2022-10-19T21:11:20.589Z,100265.06
2022-10-19T21:13:48.136Z,100245.22
2022-10-19T21:16:17.071Z,100248.72
2022-10-19T21:18:48.801Z,100228.50
2022-10-19T21:21:30.019Z,100198.38
2022-10-19T21:23:59.931Z,100165.44
2022-10-19T21:26:28.343Z,100134.94
2022-10-19T21:28:55.696Z,100101.66
2022-10-19T21:31:23.666Z,100040.22
2022-10-19T21:33:51.811Z,100054.06
2022-10-19T21:36:19.441Z,100149.56
2022-10-19T21:38:46.074Z,100140.06
2022-10-19T21:41:23.791Z,100120.63
2022-10-19T21:43:53.084Z,100121.44
2022-10-19T21:46:21.653Z,100113.94
2022-10-19T21:48:49.707Z,100111.16
2022-10-19T21:51:37.178Z,100112.75
2022-10-19T21:54:05.484Z,100112.75
2022-10-19T21:56:33.341Z,100120.72
2022-10-19T21:59:00.623Z,100117.94
2022-10-19T22:01:29.474Z,100114.78
2022-10-19T22:03:57.628Z,100122.28
2022-10-19T22:06:26.565Z,100126.31
2022-10-19T22:08:53.438Z,100129.06
2022-10-19T22:11:20.361Z,100142.59
2022-10-19T22:13:47.091Z,100131.13
2022-10-19T22:16:16.687Z,100141.06
2022-10-19T22:18:43.995Z,100143.44
2022-10-19T22:21:23.164Z,100151.41
2022-10-19T22:23:55.206Z,100153.00
2022-10-19T22:26:27.721Z,100162.94
2022-10-19T22:28:58.616Z,100163.75
2022-10-19T22:31:26.561Z,100165.31
2022-10-19T22:33:53.274Z,100167.75
2022-10-19T22:36:20.096Z,100186.00
2022-10-19T22:38:46.771Z,100167.38
2022-10-19T22:42:09.689Z,100169.78
2022-10-19T22:44:36.511Z,100175.34
2022-10-19T22:47:03.138Z,100182.47
2022-10-19T22:49:29.819Z,100180.50
2022-10-19T22:51:56.442Z,100188.84
2022-10-19T22:54:23.149Z,100176.19
2022-10-19T22:56:49.826Z,100164.28
2022-10-19T22:59:16.479Z,100156.78
2022-10-19T23:01:43.317Z,100158.38
2022-10-19T23:04:10.015Z,100164.75
2022-10-19T23:06:36.718Z,100159.19
2022-10-19T23:09:04.049Z,100144.94
2022-10-19T23:11:30.710Z,100129.44
2022-10-19T23:13:57.319Z,100141.00
2022-10-19T23:16:24.022Z,100135.47
2022-10-19T23:18:50.659Z,100142.59
2022-10-19T23:21:17.296Z,100149.75
2022-10-19T23:23:43.982Z,100149.75
2022-10-19T23:26:12.401Z,100149.75
2022-10-19T23:28:40.785Z,100140.28
2022-10-19T23:31:20.438Z,100135.88
2022-10-19T23:33:47.335Z,100127.56
2022-10-19T23:36:25.684Z,100125.59
2022-10-19T23:38:53.311Z,100127.97
2022-10-19T23:41:21.080Z,100120.47
2022-10-19T23:43:48.422Z,100119.66
2022-10-19T23:46:15.557Z,100118.84
2022-10-19T23:48:42.355Z,100112.53
2022-10-19T23:51:15.394Z,100106.16
2022-10-19T23:53:44.238Z,100099.81
2022-10-19T23:56:17.618Z,100093.44
2022-10-19T23:58:44.780Z,100089.50
